Time;durP1;ratioP1;P1;durP2;ratioP2;P2;SDS_P1;SDS_P2;PMS_P1;PMS_P2;Temp;Humidity;BMP_temperature;BMP_pressure;BME280_temperature;BME280_humidity;BME280_pressure;Samples;Min_cycle;Max_cycle;Signal;HPM_P1;HPM_P2
2021/12/02 05:28:35;;;;;;;;;;;;;;;4.29;100.00;96854.38;5889436;23;19921;-69
2021/12/02 05:31:02;;;;;;;;;;;;;;;4.27;100.00;96851.22;4901715;29;19932;-71
2021/12/02 05:33:29;;;;;;;;;;;;;;;4.24;100.00;96844.47;4900735;29;19935;-70
2021/12/02 05:35:57;;;;;;;;;;;;;;;4.36;100.00;96840.53;4899864;29;19934;-70
2021/12/02 05:38:27;;;;;;;;;;;;;;;4.37;100.00;96834.63;4900305;29;20257;-71
2021/12/02 05:40:54;;;;;;;;;;;;;;;4.31;100.00;96844.50;4899264;29;19951;-70
2021/12/02 05:43:21;;;;;;;;;;;;;;;4.31;100.00;96852.78;4901484;29;19954;-70
2021/12/02 05:45:49;;;;;;;;;;;;;;;4.29;100.00;96851.59;4901310;29;20597;-70
2021/12/02 05:48:16;;;;;;;;;;;;;;;4.37;100.00;96848.47;4901383;29;19943;-84
2021/12/02 05:50:44;;;;;;;;;;;;;;;4.44;100.00;96859.56;4908441;29;19927;-71
2021/12/02 05:53:13;;;;;;;;;;;;;;;4.44;100.00;96858.75;4899737;29;19939;-71
2021/12/02 05:55:40;;;;;;;;;;;;;;;4.42;100.00;96853.63;4896596;29;19938;-68
2021/12/02 05:58:10;;;;;;;;;;;;;;;4.40;100.00;96844.91;4898790;29;19939;-70
2021/12/02 06:00:38;;;;;;;;;;;;;;;4.46;100.00;96848.06;4899987;29;19927;-71
2021/12/02 06:03:05;;;;;;;;;;;;;;;4.41;100.00;96846.50;4899342;29;20387;-69
2021/12/02 06:05:33;;;;;;;;;;;;;;;4.44;100.00;96848.47;4900803;29;20232;-71
2021/12/02 06:08:03;;;;;;;;;;;;;;;4.46;100.00;96839.78;4897593;29;19938;-70
2021/12/02 06:10:31;;;;;;;;;;;;;;;4.47;100.00;96835.84;4900827;29;19939;-70
2021/12/02 06:12:58;;;;;;;;;;;;;;;4.45;100.00;96844.50;4897854;29;19935;-71
2021/12/02 06:15:25;;;;;;;;;;;;;;;4.48;100.00;96834.63;4898354;29;19932;-70
2021/12/02 06:17:53;;;;;;;;;;;;;;;4.51;100.00;96837.41;4899532;29;19931;-71
2021/12/02 06:20:20;;;;;;;;;;;;;;;4.46;100.00;96829.50;4899772;29;19936;-71
2021/12/02 06:22:47;;;;;;;;;;;;;;;4.43;100.00;96827.50;4898555;29;19928;-72
2021/12/02 06:25:44;;;;;;;;;;;;;;;4.38;100.00;96830.66;4897535;29;19932;-70
2021/12/02 06:28:05;;;;;;;;;;;;;;;4.38;100.00;96833.44;4898767;29;19927;-71
2021/12/02 06:30:32;;;;;;;;;;;;;;;4.39;100.00;96826.72;4899783;29;19958;-71
2021/12/02 06:32:59;;;;;;;;;;;;;;;4.39;100.00;96825.94;4900356;29;19931;-72
2021/12/02 06:35:28;;;;;;;;;;;;;;;4.44;100.00;96828.31;4893904;29;19931;-71
2021/12/02 06:37:55;;;;;;;;;;;;;;;4.40;100.00;96835.81;4900359;29;19942;-72
2021/12/02 06:40:23;;;;;;;;;;;;;;;4.37;100.00;96840.16;4900020;29;19931;-71
2021/12/02 06:42:51;;;;;;;;;;;;;;;4.32;100.00;96845.28;4900363;29;19935;-71
2021/12/02 06:48:31;;;;;;;;;;;;;;;4.29;100.00;96846.06;4865492;29;20340;-70
2021/12/02 06:50:58;;;;;;;;;;;;;;;4.29;100.00;96852.41;4861014;29;19939;-70
2021/12/02 06:53:27;;;;;;;;;;;;;;;4.30;100.00;96855.97;4861529;29;19936;-71
2021/12/02 06:55:54;;;;;;;;;;;;;;;4.29;100.00;96849.63;4857271;29;19946;-71
2021/12/02 06:58:21;;;;;;;;;;;;;;;4.43;100.00;96852.41;4867626;29;19931;-71
2021/12/02 07:00:49;;;;;;;;;;;;;;;4.38;100.00;96855.56;4863355;29;19935;-71
2021/12/02 07:03:16;;;;;;;;;;;;;;;4.37;100.00;96854.00;4867596;29;19935;-71
2021/12/02 07:05:44;;;;;;;;;;;;;;;4.37;100.00;96854.00;4858812;29;19936;-71
2021/12/02 07:08:11;;;;;;;;;;;;;;;4.47;100.00;96853.25;4861973;29;19958;-71
2021/12/02 07:10:40;;;;;;;;;;;;;;;4.51;100.00;96844.91;4862981;29;19939;-70
2021/12/02 07:13:07;;;;;;;;;;;;;;;4.46;100.00;96842.53;4870899;29;19931;-71
2021/12/02 07:15:42;;;;;;;;;;;;;;;4.40;100.00;96847.66;4867373;29;19939;-71
2021/12/02 07:18:13;;;;;;;;;;;;;;;4.34;100.00;96860.31;4865813;29;19932;-71
2021/12/02 07:20:42;;;;;;;;;;;;;;;4.32;100.00;96856.34;4868529;29;20325;-71
2021/12/02 07:23:09;;;;;;;;;;;;;;;4.33;100.00;96858.72;4859872;29;19939;-71
2021/12/02 07:25:40;;;;;;;;;;;;;;;4.36;100.00;96854.38;4860415;29;19939;-69
2021/12/02 07:28:11;;;;;;;;;;;;;;;4.45;100.00;96852.81;4871477;29;19932;-70
2021/12/02 07:30:38;;;;;;;;;;;;;;;4.54;100.00;96861.56;4863113;29;19928;-71
2021/12/02 07:33:08;;;;;;;;;;;;;;;4.56;100.00;96859.16;4865155;29;19939;-71
2021/12/02 07:35:35;;;;;;;;;;;;;;;4.62;100.00;96857.59;4864751;29;19931;-71
2021/12/02 07:38:03;;;;;;;;;;;;;;;4.63;100.00;96855.59;4863936;29;20249;-71
2021/12/02 07:40:35;;;;;;;;;;;;;;;4.63;100.00;96863.91;4867493;29;19948;-71
2021/12/02 07:43:03;;;;;;;;;;;;;;;4.69;100.00;96854.06;4873051;29;19939;-71
2021/12/02 07:45:32;;;;;;;;;;;;;;;4.68;100.00;96849.69;4861474;29;19932;-71
2021/12/02 07:48:00;;;;;;;;;;;;;;;4.71;100.00;96850.88;4849357;29;19932;-71
2021/12/02 07:50:27;;;;;;;;;;;;;;;4.71;100.00;96840.59;4839557;29;19933;-71
2021/12/02 07:52:56;;;;;;;;;;;;;;;4.71;100.00;96845.34;4836975;29;19967;-70
2021/12/02 07:55:24;;;;;;;;;;;;;;;4.80;100.00;96856.81;4840207;29;19955;-71
2021/12/02 07:57:53;;;;;;;;;;;;;;;4.88;100.00;96852.84;4843486;29;20353;-70
2021/12/02 08:00:25;;;;;;;;;;;;;;;4.90;100.00;96844.94;4843959;29;19963;-71
2021/12/02 08:02:53;;;;;;;;;;;;;;;4.95;100.00;96850.09;4849862;29;19928;-71
2021/12/02 08:05:24;;;;;;;;;;;;;;;5.00;100.00;96849.69;4845540;29;19943;-71
2021/12/02 08:07:52;;;;;;;;;;;;;;;5.00;100.00;96847.72;4845548;29;19928;-71
2021/12/02 08:10:20;;;;;;;;;;;;;;;5.03;100.00;96851.66;4847505;29;19952;-71
2021/12/02 08:12:49;;;;;;;;;;;;;;;4.92;100.00;96848.09;4843647;29;19932;-71
2021/12/02 08:15:26;;;;;;;;;;;;;;;4.90;100.00;96842.16;4848493;29;19940;-71
2021/12/02 08:17:54;;;;;;;;;;;;;;;4.90;100.00;96844.94;4844864;29;19928;-71
2021/12/02 08:20:23;;;;;;;;;;;;;;;4.97;100.00;96847.69;4849394;29;19932;-70
2021/12/02 08:22:51;;;;;;;;;;;;;;;5.03;100.00;96846.13;4847975;29;19937;-70
2021/12/02 08:25:20;;;;;;;;;;;;;;;5.04;100.00;96844.94;4839673;29;20234;-70
2021/12/02 08:27:48;;;;;;;;;;;;;;;5.05;100.00;96850.09;4840265;29;19940;-71
2021/12/02 08:30:16;;;;;;;;;;;;;;;5.01;100.00;96848.50;4843022;29;19933;-71
2021/12/02 08:32:45;;;;;;;;;;;;;;;5.07;100.00;96850.47;4844784;29;19940;-71
2021/12/02 08:35:13;;;;;;;;;;;;;;;5.12;100.00;96854.81;4846356;29;20230;-71
2021/12/02 08:37:44;;;;;;;;;;;;;;;5.07;100.00;96853.25;4841141;29;19932;-71
2021/12/02 08:40:17;;;;;;;;;;;;;;;5.15;100.00;96854.03;4842442;29;19932;-71
2021/12/02 08:42:45;;;;;;;;;;;;;;;5.07;100.00;96847.72;4845040;29;19943;-71
2021/12/02 08:45:14;;;;;;;;;;;;;;;5.15;100.00;96849.28;4844522;29;19932;-71
2021/12/02 08:47:45;;;;;;;;;;;;;;;5.19;100.00;96841.75;4858994;29;20281;-71
2021/12/02 08:50:17;;;;;;;;;;;;;;;5.24;100.00;96840.56;4867723;29;19928;-70
2021/12/02 08:52:45;;;;;;;;;;;;;;;5.29;100.00;96845.69;4862126;29;19936;-71
2021/12/02 08:55:12;;;;;;;;;;;;;;;5.31;100.00;96843.31;4862671;29;19935;-71
2021/12/02 08:57:44;;;;;;;;;;;;;;;5.41;100.00;96836.97;4867345;29;20093;-71
2021/12/02 09:00:13;;;;;;;;;;;;;;;5.43;100.00;96848.44;4862968;29;19932;-71
2021/12/02 09:02:41;;;;;;;;;;;;;;;5.33;100.00;96852.00;4862852;29;19927;-71
2021/12/02 09:05:09;;;;;;;;;;;;;;;5.18;100.00;96848.47;4861407;29;19932;-71
2021/12/02 09:07:36;;;;;;;;;;;;;;;5.11;100.00;96848.47;4860398;29;19935;-71
2021/12/02 09:10:05;;;;;;;;;;;;;;;5.14;100.00;96841.34;4864815;29;19936;-71
2021/12/02 09:12:32;;;;;;;;;;;;;;;5.16;100.00;96844.53;4862319;29;19927;-71
2021/12/02 09:15:00;;;;;;;;;;;;;;;5.27;100.00;96831.44;4863881;29;19932;-71
2021/12/02 09:17:27;;;;;;;;;;;;;;;5.25;100.00;96839.38;4857932;29;20325;-71
2021/12/02 09:19:54;;;;;;;;;;;;;;;5.18;100.00;96834.63;4861400;29;19936;-71
2021/12/02 09:22:22;;;;;;;;;;;;;;;5.18;100.00;96840.16;4863515;29;19935;-71
2021/12/02 09:24:49;;;;;;;;;;;;;;;5.28;100.00;96836.59;4866453;29;19932;-71
2021/12/02 09:27:16;;;;;;;;;;;;;;;5.35;100.00;96833.03;4861379;29;19939;-71
2021/12/02 09:29:44;;;;;;;;;;;;;;;5.41;100.00;96838.94;4857456;29;19936;-70
2021/12/02 09:32:11;;;;;;;;;;;;;;;5.54;100.00;96834.56;4859566;29;19932;-71
2021/12/02 09:34:39;;;;;;;;;;;;;;;5.57;100.00;96833.75;4858438;29;19939;-71
2021/12/02 09:37:07;;;;;;;;;;;;;;;5.60;100.00;96835.75;4860103;29;19928;-71
2021/12/02 09:39:34;;;;;;;;;;;;;;;5.60;100.00;96824.66;4859690;29;20321;-71
2021/12/02 09:42:05;;;;;;;;;;;;;;;5.57;100.00;96822.66;4860537;29;19935;-70
2021/12/02 09:44:44;;;;;;;;;;;;;;;5.55;100.00;96825.06;4860895;29;19939;-71
2021/12/02 09:47:11;;;;;;;;;;;;;;;5.60;100.00;96821.88;4863346;29;20368;-71
2021/12/02 09:49:39;;;;;;;;;;;;;;;5.61;100.00;96823.44;4862187;29;19935;-71
2021/12/02 09:52:11;;;;;;;;;;;;;;;5.66;100.00;96823.81;4861537;29;19936;-71
2021/12/02 09:54:42;;;;;;;;;;;;;;;5.63;100.00;96815.50;4862387;29;19928;-71
2021/12/02 09:57:14;;;;;;;;;;;;;;;5.61;100.00;96810.38;4861400;29;19932;-70
2021/12/02 10:02:11;;;;;;;;;;;;;;;5.55;100.00;96806.41;4865878;29;19936;-71
2021/12/02 10:04:48;;;;;;;;;;;;;;;5.40;100.00;96804.91;4866048;29;19958;-71
2021/12/02 10:07:25;;;;;;;;;;;;;;;5.31;100.00;96797.00;4870759;29;19940;-71
2021/12/02 10:10:13;;;;;;;;;;;;;;;5.45;100.00;96789.84;4866187;29;19943;-71
2021/12/02 10:13:03;;;;;;;;;;;;;;;5.43;100.00;96779.13;4865283;29;19939;-71
2021/12/02 10:15:31;;;;;;;;;;;;;;;5.54;100.00;96779.09;4867581;29;19939;-71
2021/12/02 10:18:08;;;;;;;;;;;;;;;5.61;100.00;96765.22;4865340;29;19932;-71
2021/12/02 10:20:49;;;;;;;;;;;;;;;5.66;100.00;96756.47;4868943;29;19939;-71
2021/12/02 10:23:23;;;;;;;;;;;;;;;5.71;100.00;96764.38;4862633;29;19935;-71
2021/12/02 10:25:59;;;;;;;;;;;;;;;5.77;100.00;96766.31;4863636;29;19932;-71
2021/12/02 10:28:28;;;;;;;;;;;;;;;5.81;100.00;96756.03;4866601;29;19932;-71
2021/12/02 10:30:57;;;;;;;;;;;;;;;5.85;100.00;96747.69;4866979;29;19932;-71
2021/12/02 10:33:35;;;;;;;;;;;;;;;5.86;100.00;96750.09;4862358;29;19932;-71
2021/12/02 10:36:04;;;;;;;;;;;;;;;5.87;100.00;96736.97;4860267;29;19928;-71
2021/12/02 10:38:39;;;;;;;;;;;;;;;5.87;100.00;96734.19;4859269;29;19928;-71
2021/12/02 10:41:13;;;;;;;;;;;;;;;5.97;100.00;96741.69;4860606;29;21268;-71
2021/12/02 10:43:59;;;;;;;;;;;;;;;5.94;100.00;96732.19;4861324;29;20317;-71
2021/12/02 10:46:26;;;;;;;;;;;;;;;5.98;100.00;96734.94;4860533;29;20328;-71
2021/12/02 10:48:53;;;;;;;;;;;;;;;5.95;100.00;96733.78;4863078;29;19929;-71
2021/12/02 10:51:37;;;;;;;;;;;;;;;5.92;100.00;96722.69;4861169;29;19932;-72
2021/12/02 10:54:13;;;;;;;;;;;;;;;5.88;100.00;96719.16;4859619;29;19932;-71
2021/12/02 10:56:42;;;;;;;;;;;;;;;5.91;100.00;96726.66;4861577;29;19939;-71
2021/12/02 10:59:26;;;;;;;;;;;;;;;5.84;100.00;96727.47;4859467;29;20348;-71
2021/12/02 11:01:55;;;;;;;;;;;;;;;5.80;100.00;96720.34;4864110;29;19935;-71
2021/12/02 11:04:22;;;;;;;;;;;;;;;5.79;100.00;96718.78;4862798;29;19943;-71
2021/12/02 11:06:51;;;;;;;;;;;;;;;5.78;100.00;96720.75;4857210;29;19932;-70
2021/12/02 11:09:28;;;;;;;;;;;;;;;5.79;100.00;96714.03;4861626;29;20229;-70
2021/12/02 11:12:09;;;;;;;;;;;;;;;5.83;100.00;96702.91;4855806;29;19936;-71
2021/12/02 11:14:39;;;;;;;;;;;;;;;5.81;100.00;96697.78;4860255;29;19945;-71
2021/12/02 11:17:13;;;;;;;;;;;;;;;5.83;100.00;96689.03;4861329;29;19943;-71
2021/12/02 11:19:42;;;;;;;;;;;;;;;5.88;100.00;96689.44;4860746;29;19939;-70
2021/12/02 11:22:12;;;;;;;;;;;;;;;5.90;100.00;96689.00;4864168;29;19932;-71
2021/12/02 11:24:40;;;;;;;;;;;;;;;5.90;100.00;96684.25;4862901;29;19936;-70
2021/12/02 11:27:19;;;;;;;;;;;;;;;5.89;100.00;96693.78;4861805;29;20202;-70
2021/12/02 11:29:52;;;;;;;;;;;;;;;5.79;100.00;96689.06;4861607;29;19947;-70
2021/12/02 11:32:23;;;;;;;;;;;;;;;5.85;100.00;96687.47;4861061;29;20006;-70
2021/12/02 11:35:02;;;;;;;;;;;;;;;5.86;100.00;96679.94;4860890;29;19939;-70
2021/12/02 11:37:31;;;;;;;;;;;;;;;5.84;100.00;96676.75;4853504;29;19939;-70
2021/12/02 11:40:01;;;;;;;;;;;;;;;5.80;100.00;96678.75;4861750;29;19928;-70
2021/12/02 11:42:28;;;;;;;;;;;;;;;5.84;100.00;96677.56;4861943;29;19939;-70
2021/12/02 11:44:56;;;;;;;;;;;;;;;5.84;100.00;96677.56;4861074;29;20306;-70
2021/12/02 11:47:24;;;;;;;;;;;;;;;5.84;100.00;96677.56;4861479;29;19932;-70
2021/12/02 11:49:52;;;;;;;;;;;;;;;5.79;100.00;96666.88;4861626;29;20043;-70
2021/12/02 11:52:20;;;;;;;;;;;;;;;5.74;100.00;96670.09;4861584;29;19935;-70
2021/12/02 11:54:47;;;;;;;;;;;;;;;5.75;100.00;96654.22;4861391;29;19928;-70
2021/12/02 11:57:15;;;;;;;;;;;;;;;5.70;100.00;96649.88;4861427;29;19959;-70
2021/12/02 11:59:42;;;;;;;;;;;;;;;5.65;100.00;96646.78;4861456;29;19948;-70
2021/12/02 12:02:15;;;;;;;;;;;;;;;5.67;100.00;96644.38;4861795;29;19932;-70
2021/12/02 12:04:52;;;;;;;;;;;;;;;5.71;100.00;96640.38;4860861;29;19932;-70
2021/12/02 12:07:21;;;;;;;;;;;;;;;5.77;100.00;96624.13;4861036;29;19932;-70
2021/12/02 12:09:48;;;;;;;;;;;;;;;5.76;100.00;96625.28;4861521;29;19948;-70
2021/12/02 12:12:15;;;;;;;;;;;;;;;5.80;100.00;96626.03;4861698;29;19939;-70
2021/12/02 12:14:43;;;;;;;;;;;;;;;5.88;100.00;96622.06;4859856;29;19928;-70
2021/12/02 12:17:11;;;;;;;;;;;;;;;5.93;100.00;96613.31;4861534;29;20622;-71
2021/12/02 12:19:44;;;;;;;;;;;;;;;5.94;100.00;96612.13;4860704;29;19932;-71
2021/12/02 12:22:27;;;;;;;;;;;;;;;5.95;100.00;96608.13;4852177;29;19939;-71
2021/12/02 12:24:56;;;;;;;;;;;;;;;5.97;100.00;96603.75;4859874;29;19936;-71
2021/12/02 12:27:25;;;;;;;;;;;;;;;6.07;100.00;96595.75;4861350;29;19928;-71
2021/12/02 12:30:12;;;;;;;;;;;;;;;6.09;100.00;96590.59;4861987;29;19928;-71
2021/12/02 12:32:54;;;;;;;;;;;;;;;6.10;100.00;96590.19;4859678;29;19939;-71
2021/12/02 12:35:39;;;;;;;;;;;;;;;6.09;100.00;96583.03;4861139;29;19936;-71
2021/12/02 12:38:21;;;;;;;;;;;;;;;6.15;100.00;96589.75;4861082;29;19932;-71
2021/12/02 12:40:50;;;;;;;;;;;;;;;6.12;100.00;96593.31;4874985;29;19932;-71
2021/12/02 12:43:20;;;;;;;;;;;;;;;6.14;100.00;96592.94;4874566;29;19939;-71
2021/12/02 12:45:48;;;;;;;;;;;;;;;6.13;100.00;96583.81;4860200;29;19966;-71
2021/12/02 12:48:18;;;;;;;;;;;;;;;6.18;100.00;96577.03;4860483;29;19940;-71
2021/12/02 12:50:47;;;;;;;;;;;;;;;6.21;100.00;96573.44;4859746;29;19932;-71
2021/12/02 12:53:17;;;;;;;;;;;;;;;6.23;100.00;96571.03;4860835;29;20254;-71
2021/12/02 12:55:52;;;;;;;;;;;;;;;6.20;100.00;96563.53;4860015;29;19935;-70
2021/12/02 12:58:21;;;;;;;;;;;;;;;6.28;100.00;96573.38;4860280;29;20297;-70
2021/12/02 13:00:50;;;;;;;;;;;;;;;6.26;100.00;96570.22;4860564;29;19959;-71
2021/12/02 13:03:31;;;;;;;;;;;;;;;6.31;100.00;96565.00;4860645;29;19936;-76
2021/12/02 13:06:00;;;;;;;;;;;;;;;6.32;100.00;96565.78;4861131;29;19931;-76
2021/12/02 13:08:39;;;;;;;;;;;;;;;6.29;100.00;96561.84;4861006;29;20309;-75
2021/12/02 13:11:11;;;;;;;;;;;;;;;6.32;100.00;96558.25;4860243;29;20336;-76
2021/12/02 13:13:39;;;;;;;;;;;;;;;6.26;100.00;96542.47;4859527;29;20242;-75
2021/12/02 13:16:08;;;;;;;;;;;;;;;6.30;100.00;96544.00;4860158;29;20234;-70
2021/12/02 13:18:38;;;;;;;;;;;;;;;6.31;100.00;96539.25;4859109;29;20309;-70
2021/12/02 13:21:18;;;;;;;;;;;;;;;6.26;100.00;96536.91;4863183;29;19932;-70
2021/12/02 13:24:04;;;;;;;;;;;;;;;6.12;100.00;96539.81;4864063;29;19939;-70
2021/12/02 13:26:33;;;;;;;;;;;;;;;6.08;100.00;96531.53;4863420;29;19943;-70
2021/12/02 13:29:02;;;;;;;;;;;;;;;6.09;100.00;96533.09;4864182;29;19932;-70
2021/12/02 13:31:30;;;;;;;;;;;;;;;6.15;100.00;96528.69;4864168;29;19975;-70
2021/12/02 13:34:02;;;;;;;;;;;;;;;6.11;100.00;96532.69;4863228;29;19989;-70
2021/12/02 13:36:51;;;;;;;;;;;;;;;6.12;100.00;96529.50;4865887;29;19958;-70
2021/12/02 13:39:24;;;;;;;;;;;;;;;6.02;100.00;96521.28;4863614;29;19964;-70
2021/12/02 13:41:55;;;;;;;;;;;;;;;5.96;100.00;96529.28;4863188;29;20352;-70
2021/12/02 13:44:30;;;;;;;;;;;;;;;6.03;100.00;96517.31;4862906;29;19958;-70
2021/12/02 13:46:59;;;;;;;;;;;;;;;6.04;100.00;96514.13;4857680;29;20384;-70
2021/12/02 13:49:30;;;;;;;;;;;;;;;6.00;100.00;96507.03;4859800;29;19958;-70
2021/12/02 13:55:23;;;;;;;;;;;;;;;5.98;100.00;96501.91;4859258;29;19966;-76
2021/12/02 13:57:46;;;;;;;;;;;;;;;6.04;100.00;96507.81;4858886;29;19983;-75
2021/12/02 14:00:15;;;;;;;;;;;;;;;6.09;100.00;96496.25;4860056;29;19954;-76
2021/12/02 14:02:49;;;;;;;;;;;;;;;6.15;100.00;96511.25;4859774;29;20388;-75
2021/12/02 14:05:17;;;;;;;;;;;;;;;6.21;100.00;96509.59;4858812;29;20042;-75
2021/12/02 14:07:46;;;;;;;;;;;;;;;6.19;100.00;96506.44;4859250;29;19967;-73
2021/12/02 14:10:18;;;;;;;;;;;;;;;6.15;100.00;96505.69;4859853;29;19967;-75
2021/12/02 14:12:51;;;;;;;;;;;;;;;6.16;100.00;96496.19;4858322;29;19960;-70
2021/12/02 14:15:18;;;;;;;;;;;;;;;6.15;100.00;96497.38;4854612;29;19970;-70
2021/12/02 14:17:50;;;;;;;;;;;;;;;6.06;100.00;96491.53;4855720;29;19961;-70
2021/12/02 14:20:18;;;;;;;;;;;;;;;5.93;100.00;96483.72;4859085;29;19964;-70
2021/12/02 14:22:50;;;;;;;;;;;;;;;5.90;100.00;96487.31;4859318;29;20266;-70
2021/12/02 14:25:20;;;;;;;;;;;;;;;5.86;100.00;96489.34;4857604;29;20362;-70
2021/12/02 14:28:06;;;;;;;;;;;;;;;5.86;100.00;96488.56;4858127;29;19958;-70
2021/12/02 14:30:37;;;;;;;;;;;;;;;5.81;100.00;96486.97;4857540;29;19962;-70
2021/12/02 14:33:06;;;;;;;;;;;;;;;5.83;100.00;96487.34;4857502;29;19953;-70
2021/12/02 14:35:42;;;;;;;;;;;;;;;5.87;100.00;96493.69;4857890;29;20243;-71
2021/12/02 14:38:20;;;;;;;;;;;;;;;5.88;100.00;96492.50;4857667;29;20341;-71
2021/12/02 14:40:51;;;;;;;;;;;;;;;5.91;100.00;96494.44;4856677;29;19963;-71
2021/12/02 14:43:23;;;;;;;;;;;;;;;5.97;100.00;96498.34;4858362;29;19958;-71
2021/12/02 14:46:08;;;;;;;;;;;;;;;6.03;100.00;96490.38;4857218;29;19969;-70
2021/12/02 14:48:36;;;;;;;;;;;;;;;6.04;100.00;96489.16;4872459;29;19985;-70
2021/12/02 14:51:11;;;;;;;;;;;;;;;5.98;100.00;96488.03;4872420;29;19965;-71
2021/12/02 14:53:40;;;;;;;;;;;;;;;5.95;100.00;96486.06;4874079;29;19961;-70
2021/12/02 14:56:21;;;;;;;;;;;;;;;5.95;100.00;96489.66;4870442;29;19973;-70
2021/12/02 14:59:04;;;;;;;;;;;;;;;5.99;100.00;96488.81;4872421;29;20340;-70
2021/12/02 15:01:31;;;;;;;;;;;;;;;6.02;100.00;96496.31;4871377;29;19967;-70
2021/12/02 15:04:13;;;;;;;;;;;;;;;6.01;100.00;96486.44;4874308;29;19958;-70
2021/12/02 15:06:40;;;;;;;;;;;;;;;6.03;100.00;96492.34;4873259;29;19962;-70
2021/12/02 15:09:31;;;;;;;;;;;;;;;6.04;100.00;96499.47;4874476;29;19966;-70
2021/12/02 15:11:59;;;;;;;;;;;;;;;6.05;100.00;96501.84;4872962;29;19960;-70
2021/12/02 15:14:34;;;;;;;;;;;;;;;6.05;100.00;96501.84;4871605;29;20372;-70
2021/12/02 15:17:01;;;;;;;;;;;;;;;6.06;100.00;96492.31;4871900;29;19963;-71
2021/12/02 15:19:32;;;;;;;;;;;;;;;6.08;100.00;96483.56;4871544;29;19961;-70
2021/12/02 15:22:00;;;;;;;;;;;;;;;5.97;100.00;96492.00;4872888;29;19958;-70
2021/12/02 15:24:34;;;;;;;;;;;;;;;5.92;100.00;96489.66;4873752;29;19959;-70
2021/12/02 15:27:09;;;;;;;;;;;;;;;5.99;100.00;96486.84;4879348;29;20375;-70
2021/12/02 15:29:44;;;;;;;;;;;;;;;5.95;100.00;96483.31;4871869;29;19952;-70
2021/12/02 15:32:11;;;;;;;;;;;;;;;5.95;100.00;96489.66;4873910;29;19973;-70
2021/12/02 15:34:39;;;;;;;;;;;;;;;5.94;100.00;96485.28;4873176;29;20263;-70
2021/12/02 15:37:06;;;;;;;;;;;;;;;6.01;100.00;96484.44;4871701;29;19956;-70
2021/12/02 15:39:33;;;;;;;;;;;;;;;6.04;100.00;96493.94;4872801;29;20342;-71
2021/12/02 15:42:01;;;;;;;;;;;;;;;5.93;100.00;96494.03;4871683;29;19974;-70
2021/12/02 15:44:30;;;;;;;;;;;;;;;5.92;100.00;96486.88;4871959;29;19955;-70
2021/12/02 15:47:00;;;;;;;;;;;;;;;5.92;100.00;96496.00;4872376;29;19969;-70
2021/12/02 15:49:28;;;;;;;;;;;;;;;5.91;100.00;96501.97;4872538;29;19980;-70
2021/12/02 15:52:00;;;;;;;;;;;;;;;5.89;100.00;96502.38;4874654;29;19953;-70
2021/12/02 15:54:28;;;;;;;;;;;;;;;5.90;100.00;96506.72;4872735;29;20600;-70
2021/12/02 15:56:58;;;;;;;;;;;;;;;5.94;100.00;96496.38;4872340;29;20033;-70
2021/12/02 15:59:28;;;;;;;;;;;;;;;5.97;100.00;96503.88;4873959;29;20343;-70
2021/12/02 16:07:05;;;;;;;;;;;;;;;5.82;100.00;96493.31;4873313;29;19957;-70
2021/12/02 16:12:29;;;;;;;;;;;;;;;5.64;100.00;96487.13;4872091;29;19956;-70
2021/12/02 16:14:58;;;;;;;;;;;;;;;5.59;100.00;96491.16;4872236;29;20330;-70
2021/12/02 16:17:26;;;;;;;;;;;;;;;5.50;100.00;96496.34;4871748;29;20278;-70
2021/12/02 16:19:54;;;;;;;;;;;;;;;5.47;100.00;96502.72;4872543;29;19953;-70
2021/12/02 16:22:22;;;;;;;;;;;;;;;5.48;100.00;96509.06;4873805;29;19963;-70
2021/12/02 16:24:53;;;;;;;;;;;;;;;5.52;100.00;96518.94;4871632;29;19956;-71
2021/12/02 16:27:21;;;;;;;;;;;;;;;5.54;100.00;96513.75;4873203;29;20239;-70
2021/12/02 16:29:48;;;;;;;;;;;;;;;5.63;100.00;96513.28;4873891;29;20258;-70
2021/12/02 16:32:16;;;;;;;;;;;;;;;5.63;100.00;96516.84;4871961;29;19963;-70
2021/12/02 16:34:43;;;;;;;;;;;;;;;5.66;100.00;96518.81;4872538;29;19954;-70
2021/12/02 16:37:11;;;;;;;;;;;;;;;5.66;100.00;96520.78;4871889;29;20591;-70
2021/12/02 16:39:38;;;;;;;;;;;;;;;5.70;100.00;96527.06;4869616;29;19983;-70
2021/12/02 16:42:06;;;;;;;;;;;;;;;5.72;100.00;96531.03;4869316;29;19953;-71
2021/12/02 16:44:34;;;;;;;;;;;;;;;5.71;100.00;96526.69;4867739;29;19960;-70
2021/12/02 16:47:01;;;;;;;;;;;;;;;5.71;100.00;96525.91;4869978;29;20942;-70
2021/12/02 16:49:28;;;;;;;;;;;;;;;5.70;100.00;96527.88;4865013;29;20356;-71
2021/12/02 16:51:58;;;;;;;;;;;;;;;5.71;100.00;96523.91;4866420;29;19954;-71
2021/12/02 16:54:25;;;;;;;;;;;;;;;5.72;100.00;96536.56;4872230;29;19957;-70
2021/12/02 16:56:53;;;;;;;;;;;;;;;5.74;100.00;96538.94;4867477;29;20463;-70
2021/12/02 16:59:20;;;;;;;;;;;;;;;5.77;100.00;96541.69;4866848;29;20398;-70
2021/12/02 17:01:48;;;;;;;;;;;;;;;5.80;100.00;96543.63;4867597;29;20352;-70
2021/12/02 17:04:15;;;;;;;;;;;;;;;5.83;100.00;96544.81;4867699;29;19952;-70
2021/12/02 17:06:42;;;;;;;;;;;;;;;5.87;100.00;96540.84;4869190;29;19960;-71
2021/12/02 17:09:10;;;;;;;;;;;;;;;5.89;100.00;96546.75;4870920;29;19972;-70
2021/12/02 17:11:37;;;;;;;;;;;;;;;5.83;100.00;96547.59;4869796;29;19950;-70
2021/12/02 17:14:04;;;;;;;;;;;;;;;5.86;100.00;96544.81;4867510;29;20874;-70
2021/12/02 17:16:31;;;;;;;;;;;;;;;5.88;100.00;96555.50;4866994;29;19977;-70
2021/12/02 17:18:59;;;;;;;;;;;;;;;5.91;100.00;96555.47;4868544;29;19958;-70
2021/12/02 17:21:26;;;;;;;;;;;;;;;5.83;100.00;96551.16;4869431;29;19954;-70
2021/12/02 17:23:54;;;;;;;;;;;;;;;5.81;100.00;96548.00;4871188;29;19968;-70
2021/12/02 17:26:21;;;;;;;;;;;;;;;5.77;100.00;96541.69;4864801;29;19959;-70
2021/12/02 17:28:50;;;;;;;;;;;;;;;5.73;100.00;96552.03;4869716;29;19966;-70
2021/12/02 17:31:20;;;;;;;;;;;;;;;5.74;100.00;96558.34;4864461;29;19962;-70
2021/12/02 17:33:48;;;;;;;;;;;;;;;5.76;100.00;96553.19;4870713;29;19963;-71
2021/12/02 17:36:15;;;;;;;;;;;;;;;5.75;100.00;96555.16;4872766;29;20003;-71
2021/12/02 17:38:43;;;;;;;;;;;;;;;5.70;100.00;96547.28;4865780;29;19965;-70
2021/12/02 17:41:10;;;;;;;;;;;;;;;5.67;100.00;96553.63;4867111;29;20026;-70
2021/12/02 17:43:38;;;;;;;;;;;;;;;5.62;100.00;96562.41;4872232;29;19959;-70
2021/12/02 17:46:07;;;;;;;;;;;;;;;5.59;100.00;96570.75;4869740;29;19977;-71
2021/12/02 17:48:35;;;;;;;;;;;;;;;5.53;100.00;96575.13;4870323;29;20260;-71
2021/12/02 17:51:02;;;;;;;;;;;;;;;5.49;100.00;96575.19;4868572;29;20405;-71
2021/12/02 17:53:35;;;;;;;;;;;;;;;5.51;100.00;96578.31;4870557;29;19951;-71
2021/12/02 17:56:03;;;;;;;;;;;;;;;5.51;100.00;96575.56;4860702;29;19967;-71
2021/12/02 17:58:30;;;;;;;;;;;;;;;5.46;100.00;96581.53;4867911;29;19978;-71
2021/12/02 18:00:58;;;;;;;;;;;;;;;5.44;100.00;96581.16;4871077;29;19954;-71
2021/12/02 18:03:25;;;;;;;;;;;;;;;5.43;100.00;96587.09;4868046;29;19963;-71
2021/12/02 18:05:53;;;;;;;;;;;;;;;5.42;100.00;96594.63;4869042;29;19963;-71
2021/12/02 18:08:20;;;;;;;;;;;;;;;5.41;100.00;96590.28;4865812;29;19951;-71
2021/12/02 18:10:48;;;;;;;;;;;;;;;5.39;100.00;96597.41;4867642;29;19963;-71
2021/12/02 18:13:16;;;;;;;;;;;;;;;5.38;100.00;96596.63;4869186;29;19954;-71
2021/12/02 18:15:43;;;;;;;;;;;;;;;5.43;100.00;96593.41;4868211;29;20382;-71
2021/12/02 18:18:11;;;;;;;;;;;;;;;5.49;100.00;96597.34;4868952;29;19956;-71
2021/12/02 18:20:39;;;;;;;;;;;;;;;5.46;100.00;96600.13;4865154;29;20474;-71
2021/12/02 18:23:08;;;;;;;;;;;;;;;5.53;100.00;96609.19;4866793;29;19949;-71
2021/12/02 18:25:36;;;;;;;;;;;;;;;5.55;100.00;96617.88;4868068;29;19954;-71
2021/12/02 18:28:04;;;;;;;;;;;;;;;5.62;100.00;96619.84;4870578;29;19987;-71
2021/12/02 18:30:31;;;;;;;;;;;;;;;5.70;100.00;96626.91;4869686;29;19953;-71
2021/12/02 18:32:59;;;;;;;;;;;;;;;5.72;100.00;96632.88;4872094;29;20018;-71
2021/12/02 18:35:26;;;;;;;;;;;;;;;5.72;100.00;96639.16;4871742;29;19971;-71
2021/12/02 18:37:55;;;;;;;;;;;;;;;5.74;100.00;96642.34;4871132;29;19969;-71
2021/12/02 18:40:23;;;;;;;;;;;;;;;5.71;100.00;96645.94;4872302;29;20262;-71
2021/12/02 18:42:50;;;;;;;;;;;;;;;5.70;100.00;96638.78;4859647;29;19951;-71
2021/12/02 18:45:19;;;;;;;;;;;;;;;5.67;100.00;96642.38;4871389;29;19956;-72
2021/12/02 18:47:46;;;;;;;;;;;;;;;5.62;100.00;96631.75;4870292;29;19987;-71